sensor_id;sensor_type;location;lat;lon;timestamp;P1;durP1;ratioP1;P2;durP2;ratioP2
34902;SDS011;21114;44.840;0.214;2022-11-20T00:02:00;38.70;;;14.18;;
34902;SDS011;21114;44.840;0.214;2022-11-20T00:04:26;23.08;;;11.80;;
34902;SDS011;21114;44.840;0.214;2022-11-20T00:06:52;26.30;;;11.98;;
34902;SDS011;21114;44.840;0.214;2022-11-20T00:09:18;30.67;;;12.98;;
34902;SDS011;21114;44.840;0.214;2022-11-20T00:11:44;19.50;;;13.50;;
34902;SDS011;21114;44.840;0.214;2022-11-20T00:14:10;21.08;;;12.50;;
34902;SDS011;21114;44.840;0.214;2022-11-20T00:16:36;54.58;;;16.30;;
34902;SDS011;21114;44.840;0.214;2022-11-20T00:19:02;35.30;;;13.75;;
34902;SDS011;21114;44.840;0.214;2022-11-20T00:21:29;44.67;;;17.73;;
34902;SDS011;21114;44.840;0.214;2022-11-20T00:23:56;34.80;;;14.25;;
34902;SDS011;21114;44.840;0.214;2022-11-20T00:27:10;79.15;;;25.50;;
34902;SDS011;21114;44.840;0.214;2022-11-20T00:29:36;67.20;;;23.20;;
34902;SDS011;21114;44.840;0.214;2022-11-20T00:32:02;52.97;;;16.30;;
34902;SDS011;21114;44.840;0.214;2022-11-20T00:34:28;64.07;;;19.42;;
34902;SDS011;21114;44.840;0.214;2022-11-20T00:36:54;40.53;;;16.52;;
34902;SDS011;21114;44.840;0.214;2022-11-20T00:39:20;20.30;;;13.23;;
34902;SDS011;21114;44.840;0.214;2022-11-20T00:41:47;12.57;;;10.30;;
34902;SDS011;21114;44.840;0.214;2022-11-20T00:44:13;19.23;;;12.15;;
34902;SDS011;21114;44.840;0.214;2022-11-20T00:46:39;14.88;;;11.20;;
34902;SDS011;21114;44.840;0.214;2022-11-20T00:49:05;22.95;;;13.93;;
34902;SDS011;21114;44.840;0.214;2022-11-20T00:51:31;30.65;;;15.10;;
34902;SDS011;21114;44.840;0.214;2022-11-20T00:53:57;32.45;;;16.85;;
34902;SDS011;21114;44.840;0.214;2022-11-20T00:57:12;27.30;;;15.45;;
34902;SDS011;21114;44.840;0.214;2022-11-20T00:59:38;34.97;;;16.40;;
34902;SDS011;21114;44.840;0.214;2022-11-20T01:02:04;25.67;;;14.45;;
34902;SDS011;21114;44.840;0.214;2022-11-20T01:04:30;32.40;;;14.88;;
34902;SDS011;21114;44.840;0.214;2022-11-20T01:06:56;71.18;;;19.40;;
34902;SDS011;21114;44.840;0.214;2022-11-20T01:09:22;29.52;;;12.70;;
34902;SDS011;21114;44.840;0.214;2022-11-20T01:11:48;56.25;;;15.43;;
34902;SDS011;21114;44.840;0.214;2022-11-20T01:14:16;24.27;;;12.43;;
34902;SDS011;21114;44.840;0.214;2022-11-20T01:17:31;15.38;;;11.63;;
34902;SDS011;21114;44.840;0.214;2022-11-20T01:20:46;12.63;;;8.38;;
34902;SDS011;21114;44.840;0.214;2022-11-20T01:23:12;9.43;;;7.35;;
34902;SDS011;21114;44.840;0.214;2022-11-20T01:25:38;9.65;;;6.93;;
34902;SDS011;21114;44.840;0.214;2022-11-20T01:28:04;6.18;;;5.57;;
34902;SDS011;21114;44.840;0.214;2022-11-20T01:30:30;7.88;;;6.70;;
34902;SDS011;21114;44.840;0.214;2022-11-20T01:32:56;6.22;;;5.60;;
34902;SDS011;21114;44.840;0.214;2022-11-20T01:35:22;6.78;;;5.68;;
34902;SDS011;21114;44.840;0.214;2022-11-20T01:37:49;7.20;;;6.20;;
34902;SDS011;21114;44.840;0.214;2022-11-20T01:41:04;9.63;;;6.40;;
34902;SDS011;21114;44.840;0.214;2022-11-20T01:50:10;56.72;;;10.32;;
34902;SDS011;21114;44.840;0.214;2022-11-20T01:53:31;15.05;;;6.93;;
34902;SDS011;21114;44.840;0.214;2022-11-20T01:56:47;13.52;;;6.65;;
34902;SDS011;21114;44.840;0.214;2022-11-20T02:00:05;8.43;;;6.40;;
34902;SDS011;21114;44.840;0.214;2022-11-20T02:03:20;7.45;;;5.88;;
34902;SDS011;21114;44.840;0.214;2022-11-20T02:05:49;7.55;;;6.10;;
34902;SDS011;21114;44.840;0.214;2022-11-20T02:09:05;10.70;;;6.65;;
34902;SDS011;21114;44.840;0.214;2022-11-20T02:11:31;13.48;;;7.13;;
34902;SDS011;21114;44.840;0.214;2022-11-20T02:13:58;9.55;;;7.32;;
34902;SDS011;21114;44.840;0.214;2022-11-20T02:17:13;8.88;;;6.78;;
34902;SDS011;21114;44.840;0.214;2022-11-20T02:19:39;50.92;;;13.68;;
34902;SDS011;21114;44.840;0.214;2022-11-20T02:22:10;11.98;;;7.90;;
34902;SDS011;21114;44.840;0.214;2022-11-20T02:25:26;26.38;;;9.65;;
34902;SDS011;21114;44.840;0.214;2022-11-20T02:28:42;31.77;;;10.13;;
34902;SDS011;21114;44.840;0.214;2022-11-20T02:31:08;13.60;;;7.82;;
34902;SDS011;21114;44.840;0.214;2022-11-20T02:33:34;32.15;;;11.35;;
34902;SDS011;21114;44.840;0.214;2022-11-20T02:36:00;15.63;;;7.63;;
34902;SDS011;21114;44.840;0.214;2022-11-20T02:38:26;25.45;;;7.50;;
34902;SDS011;21114;44.840;0.214;2022-11-20T02:40:52;21.52;;;8.93;;
34902;SDS011;21114;44.840;0.214;2022-11-20T02:43:18;52.65;;;15.07;;
34902;SDS011;21114;44.840;0.214;2022-11-20T02:45:44;52.63;;;10.93;;
34902;SDS011;21114;44.840;0.214;2022-11-20T02:48:10;44.40;;;11.98;;
34902;SDS011;21114;44.840;0.214;2022-11-20T02:50:37;55.35;;;14.70;;
34902;SDS011;21114;44.840;0.214;2022-11-20T02:53:52;25.80;;;8.70;;
34902;SDS011;21114;44.840;0.214;2022-11-20T02:56:18;52.88;;;14.15;;
34902;SDS011;21114;44.840;0.214;2022-11-20T02:58:44;24.55;;;10.68;;
34902;SDS011;21114;44.840;0.214;2022-11-20T03:01:10;78.30;;;16.92;;
34902;SDS011;21114;44.840;0.214;2022-11-20T03:03:36;41.70;;;15.98;;
34902;SDS011;21114;44.840;0.214;2022-11-20T03:06:03;20.25;;;8.80;;
34902;SDS011;21114;44.840;0.214;2022-11-20T03:09:17;29.10;;;9.45;;
34902;SDS011;21114;44.840;0.214;2022-11-20T03:11:43;15.50;;;7.45;;
34902;SDS011;21114;44.840;0.214;2022-11-20T03:14:09;32.15;;;11.00;;
34902;SDS011;21114;44.840;0.214;2022-11-20T03:16:36;10.57;;;7.53;;
34902;SDS011;21114;44.840;0.214;2022-11-20T03:19:02;11.02;;;7.53;;
34902;SDS011;21114;44.840;0.214;2022-11-20T03:21:28;9.10;;;7.90;;
34902;SDS011;21114;44.840;0.214;2022-11-20T03:23:54;10.10;;;7.32;;
34902;SDS011;21114;44.840;0.214;2022-11-20T03:26:21;19.52;;;8.10;;
34902;SDS011;21114;44.840;0.214;2022-11-20T03:29:26;29.25;;;10.32;;
34902;SDS011;21114;44.840;0.214;2022-11-20T03:31:52;13.73;;;8.00;;
34902;SDS011;21114;44.840;0.214;2022-11-20T03:34:18;9.98;;;7.40;;
34902;SDS011;21114;44.840;0.214;2022-11-20T03:36:44;11.75;;;7.85;;
34902;SDS011;21114;44.840;0.214;2022-11-20T03:39:10;11.80;;;8.65;;
34902;SDS011;21114;44.840;0.214;2022-11-20T03:41:37;20.60;;;7.78;;
34902;SDS011;21114;44.840;0.214;2022-11-20T03:45:10;64.60;;;13.02;;
34902;SDS011;21114;44.840;0.214;2022-11-20T03:47:37;19.63;;;10.00;;
34902;SDS011;21114;44.840;0.214;2022-11-20T03:50:03;13.65;;;7.80;;
34902;SDS011;21114;44.840;0.214;2022-11-20T03:52:29;20.85;;;8.15;;
34902;SDS011;21114;44.840;0.214;2022-11-20T03:54:55;17.42;;;9.35;;
34902;SDS011;21114;44.840;0.214;2022-11-20T03:57:21;56.25;;;15.15;;
34902;SDS011;21114;44.840;0.214;2022-11-20T03:59:47;26.17;;;10.63;;
34902;SDS011;21114;44.840;0.214;2022-11-20T04:02:14;17.10;;;9.90;;
34902;SDS011;21114;44.840;0.214;2022-11-20T04:04:40;38.80;;;11.00;;
34902;SDS011;21114;44.840;0.214;2022-11-20T04:07:06;19.98;;;9.38;;
34902;SDS011;21114;44.840;0.214;2022-11-20T04:09:32;30.75;;;10.02;;
34902;SDS011;21114;44.840;0.214;2022-11-20T04:11:58;30.38;;;8.98;;
34902;SDS011;21114;44.840;0.214;2022-11-20T04:14:24;40.05;;;11.27;;
34902;SDS011;21114;44.840;0.214;2022-11-20T04:16:50;76.88;;;18.77;;
34902;SDS011;21114;44.840;0.214;2022-11-20T04:19:16;60.90;;;13.35;;
34902;SDS011;21114;44.840;0.214;2022-11-20T04:21:43;31.90;;;13.23;;
34902;SDS011;21114;44.840;0.214;2022-11-20T04:24:58;46.13;;;13.00;;
34902;SDS011;21114;44.840;0.214;2022-11-20T04:27:24;36.65;;;12.43;;
34902;SDS011;21114;44.840;0.214;2022-11-20T04:29:50;19.90;;;10.80;;
34902;SDS011;21114;44.840;0.214;2022-11-20T04:32:16;23.17;;;9.80;;
34902;SDS011;21114;44.840;0.214;2022-11-20T04:34:42;24.63;;;8.45;;
34902;SDS011;21114;44.840;0.214;2022-11-20T04:37:08;15.07;;;7.95;;
34902;SDS011;21114;44.840;0.214;2022-11-20T04:39:34;21.13;;;8.63;;
34902;SDS011;21114;44.840;0.214;2022-11-20T04:42:00;21.58;;;9.40;;
34902;SDS011;21114;44.840;0.214;2022-11-20T04:44:54;49.88;;;14.05;;
34902;SDS011;21114;44.840;0.214;2022-11-20T04:47:21;18.33;;;8.68;;
34902;SDS011;21114;44.840;0.214;2022-11-20T04:50:39;34.70;;;8.27;;
34902;SDS011;21114;44.840;0.214;2022-11-20T04:53:53;17.10;;;8.75;;
34902;SDS011;21114;44.840;0.214;2022-11-20T04:56:20;17.77;;;7.78;;
34902;SDS011;21114;44.840;0.214;2022-11-20T04:58:46;18.13;;;7.47;;
34902;SDS011;21114;44.840;0.214;2022-11-20T05:01:13;24.25;;;9.98;;
34902;SDS011;21114;44.840;0.214;2022-11-20T05:04:27;9.85;;;6.47;;
34902;SDS011;21114;44.840;0.214;2022-11-20T05:06:53;13.23;;;8.15;;
34902;SDS011;21114;44.840;0.214;2022-11-20T05:09:19;13.57;;;9.50;;
34902;SDS011;21114;44.840;0.214;2022-11-20T05:11:46;12.13;;;6.28;;
34902;SDS011;21114;44.840;0.214;2022-11-20T05:14:12;8.52;;;6.68;;
34902;SDS011;21114;44.840;0.214;2022-11-20T05:16:38;14.07;;;7.05;;
34902;SDS011;21114;44.840;0.214;2022-11-20T05:19:04;13.35;;;7.85;;
34902;SDS011;21114;44.840;0.214;2022-11-20T05:21:30;9.90;;;8.20;;
34902;SDS011;21114;44.840;0.214;2022-11-20T05:23:57;15.77;;;9.32;;
34902;SDS011;21114;44.840;0.214;2022-11-20T05:26:23;14.23;;;8.70;;
34902;SDS011;21114;44.840;0.214;2022-11-20T05:29:38;19.60;;;13.95;;
34902;SDS011;21114;44.840;0.214;2022-11-20T05:32:04;17.55;;;9.35;;
34902;SDS011;21114;44.840;0.214;2022-11-20T05:34:32;11.65;;;8.63;;
34902;SDS011;21114;44.840;0.214;2022-11-20T05:36:58;9.93;;;8.18;;
34902;SDS011;21114;44.840;0.214;2022-11-20T05:39:24;8.07;;;6.20;;
34902;SDS011;21114;44.840;0.214;2022-11-20T05:41:50;7.40;;;6.35;;
34902;SDS011;21114;44.840;0.214;2022-11-20T05:44:36;10.40;;;7.30;;
34902;SDS011;21114;44.840;0.214;2022-11-20T05:47:02;8.13;;;6.50;;
34902;SDS011;21114;44.840;0.214;2022-11-20T05:49:28;9.50;;;6.97;;
34902;SDS011;21114;44.840;0.214;2022-11-20T05:51:54;30.58;;;7.85;;
34902;SDS011;21114;44.840;0.214;2022-11-20T05:54:21;7.10;;;5.88;;
34902;SDS011;21114;44.840;0.214;2022-11-20T05:56:47;8.60;;;6.65;;
34902;SDS011;21114;44.840;0.214;2022-11-20T05:59:13;16.13;;;10.95;;
34902;SDS011;21114;44.840;0.214;2022-11-20T06:01:39;11.88;;;8.23;;
34902;SDS011;21114;44.840;0.214;2022-11-20T06:04:05;9.05;;;7.57;;
34902;SDS011;21114;44.840;0.214;2022-11-20T06:06:31;12.95;;;8.00;;
34902;SDS011;21114;44.840;0.214;2022-11-20T06:08:57;8.88;;;6.93;;
34902;SDS011;21114;44.840;0.214;2022-11-20T06:11:24;9.02;;;7.05;;
34902;SDS011;21114;44.840;0.214;2022-11-20T06:13:50;16.27;;;6.88;;
34902;SDS011;21114;44.840;0.214;2022-11-20T06:16:17;7.25;;;6.47;;
34902;SDS011;21114;44.840;0.214;2022-11-20T06:19:32;13.73;;;6.53;;
34902;SDS011;21114;44.840;0.214;2022-11-20T06:21:58;31.95;;;16.35;;
34902;SDS011;21114;44.840;0.214;2022-11-20T06:24:24;12.93;;;9.10;;
34902;SDS011;21114;44.840;0.214;2022-11-20T06:26:50;11.38;;;8.40;;
34902;SDS011;21114;44.840;0.214;2022-11-20T06:29:17;10.98;;;8.00;;
34902;SDS011;21114;44.840;0.214;2022-11-20T06:31:43;9.98;;;6.80;;
34902;SDS011;21114;44.840;0.214;2022-11-20T06:34:09;7.60;;;6.40;;
34902;SDS011;21114;44.840;0.214;2022-11-20T06:36:35;8.50;;;7.25;;
34902;SDS011;21114;44.840;0.214;2022-11-20T06:39:02;6.07;;;5.30;;
34902;SDS011;21114;44.840;0.214;2022-11-20T06:41:28;8.18;;;7.03;;
34902;SDS011;21114;44.840;0.214;2022-11-20T06:43:54;8.90;;;7.78;;
34902;SDS011;21114;44.840;0.214;2022-11-20T06:46:20;6.70;;;5.57;;
34902;SDS011;21114;44.840;0.214;2022-11-20T06:48:47;8.82;;;6.85;;
34902;SDS011;21114;44.840;0.214;2022-11-20T06:52:03;12.52;;;8.93;;
34902;SDS011;21114;44.840;0.214;2022-11-20T06:54:29;25.05;;;17.23;;
34902;SDS011;21114;44.840;0.214;2022-11-20T06:56:55;33.55;;;20.92;;
34902;SDS011;21114;44.840;0.214;2022-11-20T06:59:21;21.33;;;14.60;;
34902;SDS011;21114;44.840;0.214;2022-11-20T07:01:48;25.20;;;18.00;;
34902;SDS011;21114;44.840;0.214;2022-11-20T07:04:14;23.15;;;15.45;;
34902;SDS011;21114;44.840;0.214;2022-11-20T07:06:40;23.42;;;16.52;;
34902;SDS011;21114;44.840;0.214;2022-11-20T07:09:06;15.57;;;9.48;;
34902;SDS011;21114;44.840;0.214;2022-11-20T07:11:32;9.35;;;8.07;;
34902;SDS011;21114;44.840;0.214;2022-11-20T07:13:58;10.30;;;7.25;;
34902;SDS011;21114;44.840;0.214;2022-11-20T07:16:24;12.00;;;8.77;;
34902;SDS011;21114;44.840;0.214;2022-11-20T07:18:51;14.15;;;11.20;;
34902;SDS011;21114;44.840;0.214;2022-11-20T07:22:05;10.30;;;9.15;;
34902;SDS011;21114;44.840;0.214;2022-11-20T07:24:32;10.07;;;9.07;;
34902;SDS011;21114;44.840;0.214;2022-11-20T07:26:58;9.90;;;7.82;;
34902;SDS011;21114;44.840;0.214;2022-11-20T07:29:24;9.18;;;7.75;;
34902;SDS011;21114;44.840;0.214;2022-11-20T07:31:50;10.73;;;7.75;;
34902;SDS011;21114;44.840;0.214;2022-11-20T07:34:16;8.77;;;7.88;;
34902;SDS011;21114;44.840;0.214;2022-11-20T07:36:42;10.30;;;8.35;;
34902;SDS011;21114;44.840;0.214;2022-11-20T07:39:08;12.85;;;10.93;;
34902;SDS011;21114;44.840;0.214;2022-11-20T07:41:35;10.77;;;9.00;;
34902;SDS011;21114;44.840;0.214;2022-11-20T07:44:28;9.27;;;8.00;;
34902;SDS011;21114;44.840;0.214;2022-11-20T07:46:54;10.15;;;8.18;;
34902;SDS011;21114;44.840;0.214;2022-11-20T07:49:20;9.63;;;7.18;;
34902;SDS011;21114;44.840;0.214;2022-11-20T07:51:46;10.55;;;8.77;;
34902;SDS011;21114;44.840;0.214;2022-11-20T07:54:12;14.45;;;10.15;;
34902;SDS011;21114;44.840;0.214;2022-11-20T07:56:38;14.20;;;10.23;;
34902;SDS011;21114;44.840;0.214;2022-11-20T07:59:05;11.35;;;8.88;;
34902;SDS011;21114;44.840;0.214;2022-11-20T08:01:32;11.05;;;8.05;;
34902;SDS011;21114;44.840;0.214;2022-11-20T08:03:58;16.00;;;11.77;;
34902;SDS011;21114;44.840;0.214;2022-11-20T08:06:24;11.10;;;9.27;;
34902;SDS011;21114;44.840;0.214;2022-11-20T08:08:50;11.80;;;8.70;;
34902;SDS011;21114;44.840;0.214;2022-11-20T08:11:16;13.48;;;11.05;;
34902;SDS011;21114;44.840;0.214;2022-11-20T08:14:11;15.40;;;11.90;;
34902;SDS011;21114;44.840;0.214;2022-11-20T08:16:37;15.38;;;10.57;;
34902;SDS011;21114;44.840;0.214;2022-11-20T08:19:03;13.55;;;10.02;;
34902;SDS011;21114;44.840;0.214;2022-11-20T08:21:30;16.50;;;13.05;;
34902;SDS011;21114;44.840;0.214;2022-11-20T08:23:57;11.77;;;9.25;;
34902;SDS011;21114;44.840;0.214;2022-11-20T08:26:23;12.35;;;11.02;;
34902;SDS011;21114;44.840;0.214;2022-11-20T08:28:52;18.90;;;11.20;;
34902;SDS011;21114;44.840;0.214;2022-11-20T08:32:07;10.35;;;8.35;;
34902;SDS011;21114;44.840;0.214;2022-11-20T08:34:33;10.70;;;9.18;;
34902;SDS011;21114;44.840;0.214;2022-11-20T08:36:59;11.15;;;9.68;;
34902;SDS011;21114;44.840;0.214;2022-11-20T08:40:13;12.10;;;8.07;;
34902;SDS011;21114;44.840;0.214;2022-11-20T08:42:47;11.15;;;9.48;;
34902;SDS011;21114;44.840;0.214;2022-11-20T08:46:02;11.93;;;8.85;;
34902;SDS011;21114;44.840;0.214;2022-11-20T08:48:28;11.27;;;8.50;;
34902;SDS011;21114;44.840;0.214;2022-11-20T08:50:57;11.30;;;9.65;;
34902;SDS011;21114;44.840;0.214;2022-11-20T08:54:16;11.25;;;8.00;;
34902;SDS011;21114;44.840;0.214;2022-11-20T08:56:44;11.00;;;9.40;;
34902;SDS011;21114;44.840;0.214;2022-11-20T08:59:10;11.18;;;9.88;;
34902;SDS011;21114;44.840;0.214;2022-11-20T09:01:39;10.80;;;9.02;;
34902;SDS011;21114;44.840;0.214;2022-11-20T09:04:05;8.02;;;6.90;;
34902;SDS011;21114;44.840;0.214;2022-11-20T09:06:32;8.80;;;6.88;;
34902;SDS011;21114;44.840;0.214;2022-11-20T09:09:47;26.30;;;11.05;;
34902;SDS011;21114;44.840;0.214;2022-11-20T09:12:13;9.63;;;6.90;;
34902;SDS011;21114;44.840;0.214;2022-11-20T09:14:39;12.93;;;9.07;;
34902;SDS011;21114;44.840;0.214;2022-11-20T09:17:05;10.30;;;7.70;;
34902;SDS011;21114;44.840;0.214;2022-11-20T09:19:32;10.93;;;9.10;;
34902;SDS011;21114;44.840;0.214;2022-11-20T09:21:58;9.05;;;7.13;;
34902;SDS011;21114;44.840;0.214;2022-11-20T09:24:25;8.00;;;7.05;;
34902;SDS011;21114;44.840;0.214;2022-11-20T09:27:34;10.65;;;7.70;;
34902;SDS011;21114;44.840;0.214;2022-11-20T09:30:00;11.27;;;9.18;;
34902;SDS011;21114;44.840;0.214;2022-11-20T09:32:27;13.77;;;10.25;;
34902;SDS011;21114;44.840;0.214;2022-11-20T09:34:53;15.30;;;9.95;;
34902;SDS011;21114;44.840;0.214;2022-11-20T09:37:19;17.00;;;11.43;;
34902;SDS011;21114;44.840;0.214;2022-11-20T09:39:45;17.58;;;13.55;;
34902;SDS011;21114;44.840;0.214;2022-11-20T09:47:54;18.55;;;13.68;;
34902;SDS011;21114;44.840;0.214;2022-11-20T09:56:37;22.25;;;13.85;;
34902;SDS011;21114;44.840;0.214;2022-11-20T09:59:41;19.20;;;14.13;;
34902;SDS011;21114;44.840;0.214;2022-11-20T10:05:21;12.48;;;10.75;;
34902;SDS011;21114;44.840;0.214;2022-11-20T10:10:42;24.25;;;17.42;;
34902;SDS011;21114;44.840;0.214;2022-11-20T10:21:41;16.38;;;12.80;;
34902;SDS011;21114;44.840;0.214;2022-11-20T10:30:18;23.85;;;17.63;;
34902;SDS011;21114;44.840;0.214;2022-11-20T10:32:47;20.55;;;14.88;;
34902;SDS011;21114;44.840;0.214;2022-11-20T10:38:43;16.77;;;12.75;;
34902;SDS011;21114;44.840;0.214;2022-11-20T10:41:34;16.98;;;14.35;;
34902;SDS011;21114;44.840;0.214;2022-11-20T10:44:52;14.10;;;12.02;;
34902;SDS011;21114;44.840;0.214;2022-11-20T10:47:26;16.65;;;14.50;;
34902;SDS011;21114;44.840;0.214;2022-11-20T10:50:46;13.35;;;10.70;;
34902;SDS011;21114;44.840;0.214;2022-11-20T11:02:15;9.88;;;7.20;;
34902;SDS011;21114;44.840;0.214;2022-11-20T11:05:35;15.60;;;11.90;;
34902;SDS011;21114;44.840;0.214;2022-11-20T11:08:51;11.38;;;8.25;;
34902;SDS011;21114;44.840;0.214;2022-11-20T11:12:08;12.93;;;9.55;;
34902;SDS011;21114;44.840;0.214;2022-11-20T11:15:27;11.30;;;7.57;;
34902;SDS011;21114;44.840;0.214;2022-11-20T11:18:42;5.28;;;4.78;;
34902;SDS011;21114;44.840;0.214;2022-11-20T11:21:08;3.50;;;2.58;;
34902;SDS011;21114;44.840;0.214;2022-11-20T11:26:21;2.55;;;1.98;;
34902;SDS011;21114;44.840;0.214;2022-11-20T11:31:39;7.22;;;3.30;;
34902;SDS011;21114;44.840;0.214;2022-11-20T11:39:36;4.10;;;2.50;;
34902;SDS011;21114;44.840;0.214;2022-11-20T11:42:07;4.13;;;3.40;;
34902;SDS011;21114;44.840;0.214;2022-11-20T11:44:36;4.78;;;1.80;;
34902;SDS011;21114;44.840;0.214;2022-11-20T11:47:32;2.80;;;1.65;;
34902;SDS011;21114;44.840;0.214;2022-11-20T11:50:48;3.08;;;1.42;;
34902;SDS011;21114;44.840;0.214;2022-11-20T11:54:05;2.40;;;1.73;;
34902;SDS011;21114;44.840;0.214;2022-11-20T12:00:09;3.25;;;1.70;;
34902;SDS011;21114;44.840;0.214;2022-11-20T12:03:27;2.53;;;2.30;;
34902;SDS011;21114;44.840;0.214;2022-11-20T12:06:43;2.00;;;1.17;;
34902;SDS011;21114;44.840;0.214;2022-11-20T12:09:58;2.88;;;2.47;;
34902;SDS011;21114;44.840;0.214;2022-11-20T12:15:53;2.40;;;1.33;;
34902;SDS011;21114;44.840;0.214;2022-11-20T12:18:20;3.90;;;2.15;;
34902;SDS011;21114;44.840;0.214;2022-11-20T12:32:49;1.42;;;1.00;;
34902;SDS011;21114;44.840;0.214;2022-11-20T12:40:55;2.00;;;1.58;;
34902;SDS011;21114;44.840;0.214;2022-11-20T12:43:27;3.17;;;2.08;;
34902;SDS011;21114;44.840;0.214;2022-11-20T12:46:43;2.03;;;1.52;;
34902;SDS011;21114;44.840;0.214;2022-11-20T13:00:26;3.80;;;1.90;;
34902;SDS011;21114;44.840;0.214;2022-11-20T13:08:27;6.03;;;2.00;;
34902;SDS011;21114;44.840;0.214;2022-11-20T13:19:09;8.32;;;5.35;;
34902;SDS011;21114;44.840;0.214;2022-11-20T13:21:38;6.85;;;3.70;;
34902;SDS011;21114;44.840;0.214;2022-11-20T13:35:36;4.93;;;2.40;;
34902;SDS011;21114;44.840;0.214;2022-11-20T13:40:51;5.10;;;3.05;;
34902;SDS011;21114;44.840;0.214;2022-11-20T13:46:49;7.35;;;2.78;;
34902;SDS011;21114;44.840;0.214;2022-11-20T13:49:17;5.28;;;2.22;;
34902;SDS011;21114;44.840;0.214;2022-11-20T13:51:47;4.60;;;2.55;;
34902;SDS011;21114;44.840;0.214;2022-11-20T13:57:04;19.38;;;3.50;;
34902;SDS011;21114;44.840;0.214;2022-11-20T14:02:18;9.52;;;3.10;;
34902;SDS011;21114;44.840;0.214;2022-11-20T14:04:45;10.57;;;2.55;;
34902;SDS011;21114;44.840;0.214;2022-11-20T14:07:12;7.40;;;2.53;;
34902;SDS011;21114;44.840;0.214;2022-11-20T14:09:38;6.15;;;2.28;;
34902;SDS011;21114;44.840;0.214;2022-11-20T14:12:15;7.53;;;1.98;;
34902;SDS011;21114;44.840;0.214;2022-11-20T14:18:11;10.55;;;2.35;;
34902;SDS011;21114;44.840;0.214;2022-11-20T14:21:27;5.13;;;1.95;;
34902;SDS011;21114;44.840;0.214;2022-11-20T14:24:02;4.30;;;2.15;;
34902;SDS011;21114;44.840;0.214;2022-11-20T14:26:28;4.20;;;2.15;;
34902;SDS011;21114;44.840;0.214;2022-11-20T14:28:55;4.57;;;2.17;;
34902;SDS011;21114;44.840;0.214;2022-11-20T14:31:23;5.60;;;3.15;;
34902;SDS011;21114;44.840;0.214;2022-11-20T14:33:49;6.38;;;2.47;;
34902;SDS011;21114;44.840;0.214;2022-11-20T14:36:17;7.68;;;2.55;;
34902;SDS011;21114;44.840;0.214;2022-11-20T14:38:44;6.28;;;1.88;;
34902;SDS011;21114;44.840;0.214;2022-11-20T14:41:19;9.02;;;4.93;;
34902;SDS011;21114;44.840;0.214;2022-11-20T14:46:38;10.27;;;2.67;;
34902;SDS011;21114;44.840;0.214;2022-11-20T14:49:04;6.93;;;2.28;;
34902;SDS011;21114;44.840;0.214;2022-11-20T14:51:32;8.82;;;3.65;;
34902;SDS011;21114;44.840;0.214;2022-11-20T14:59:34;6.18;;;2.13;;
34902;SDS011;21114;44.840;0.214;2022-11-20T15:02:03;7.75;;;2.72;;
34902;SDS011;21114;44.840;0.214;2022-11-20T15:04:44;11.85;;;3.85;;
34902;SDS011;21114;44.840;0.214;2022-11-20T15:08:07;8.15;;;2.80;;
34902;SDS011;21114;44.840;0.214;2022-11-20T15:11:25;9.98;;;4.25;;
34902;SDS011;21114;44.840;0.214;2022-11-20T15:14:41;12.07;;;4.28;;
34902;SDS011;21114;44.840;0.214;2022-11-20T15:17:08;8.05;;;2.72;;
34902;SDS011;21114;44.840;0.214;2022-11-20T15:20:25;8.45;;;2.80;;
34902;SDS011;21114;44.840;0.214;2022-11-20T15:23:40;8.88;;;3.05;;
34902;SDS011;21114;44.840;0.214;2022-11-20T15:26:07;10.32;;;3.13;;
34902;SDS011;21114;44.840;0.214;2022-11-20T15:29:21;8.90;;;3.75;;
34902;SDS011;21114;44.840;0.214;2022-11-20T15:31:49;11.00;;;4.88;;
34902;SDS011;21114;44.840;0.214;2022-11-20T15:34:15;9.40;;;3.85;;
34902;SDS011;21114;44.840;0.214;2022-11-20T15:36:42;13.25;;;4.57;;
34902;SDS011;21114;44.840;0.214;2022-11-20T15:39:08;10.05;;;4.22;;
34902;SDS011;21114;44.840;0.214;2022-11-20T15:41:36;8.88;;;5.53;;
34902;SDS011;21114;44.840;0.214;2022-11-20T15:44:29;12.43;;;4.30;;
34902;SDS011;21114;44.840;0.214;2022-11-20T15:46:56;11.00;;;4.45;;
34902;SDS011;21114;44.840;0.214;2022-11-20T15:49:22;8.50;;;4.47;;
34902;SDS011;21114;44.840;0.214;2022-11-20T15:51:48;13.32;;;6.10;;
34902;SDS011;21114;44.840;0.214;2022-11-20T15:54:16;14.20;;;7.72;;
34902;SDS011;21114;44.840;0.214;2022-11-20T15:56:44;7.15;;;3.60;;
34902;SDS011;21114;44.840;0.214;2022-11-20T15:59:10;11.15;;;2.83;;
34902;SDS011;21114;44.840;0.214;2022-11-20T16:01:39;10.18;;;3.88;;
34902;SDS011;21114;44.840;0.214;2022-11-20T16:04:07;9.93;;;3.40;;
34902;SDS011;21114;44.840;0.214;2022-11-20T16:06:35;10.43;;;2.53;;
34902;SDS011;21114;44.840;0.214;2022-11-20T16:09:01;9.65;;;4.13;;
34902;SDS011;21114;44.840;0.214;2022-11-20T16:11:27;7.45;;;2.95;;
34902;SDS011;21114;44.840;0.214;2022-11-20T16:13:53;9.98;;;2.88;;
34902;SDS011;21114;44.840;0.214;2022-11-20T16:16:48;9.05;;;4.15;;
34902;SDS011;21114;44.840;0.214;2022-11-20T16:19:14;9.35;;;3.47;;
34902;SDS011;21114;44.840;0.214;2022-11-20T16:21:40;15.02;;;5.60;;
34902;SDS011;21114;44.840;0.214;2022-11-20T16:24:55;8.30;;;2.88;;
34902;SDS011;21114;44.840;0.214;2022-11-20T16:27:21;19.00;;;5.32;;
34902;SDS011;21114;44.840;0.214;2022-11-20T16:29:47;12.63;;;3.67;;
34902;SDS011;21114;44.840;0.214;2022-11-20T16:32:13;9.25;;;4.50;;
34902;SDS011;21114;44.840;0.214;2022-11-20T16:34:39;7.97;;;4.10;;
34902;SDS011;21114;44.840;0.214;2022-11-20T16:37:05;11.93;;;5.18;;
34902;SDS011;21114;44.840;0.214;2022-11-20T16:40:22;19.00;;;4.30;;
34902;SDS011;21114;44.840;0.214;2022-11-20T16:43:48;15.02;;;3.45;;
34902;SDS011;21114;44.840;0.214;2022-11-20T16:47:02;9.13;;;3.60;;
34902;SDS011;21114;44.840;0.214;2022-11-20T16:49:28;9.65;;;3.88;;
34902;SDS011;21114;44.840;0.214;2022-11-20T16:51:55;12.80;;;5.05;;
34902;SDS011;21114;44.840;0.214;2022-11-20T16:54:21;12.15;;;4.57;;
34902;SDS011;21114;44.840;0.214;2022-11-20T16:56:47;13.77;;;5.93;;
34902;SDS011;21114;44.840;0.214;2022-11-20T16:59:15;10.02;;;4.25;;
34902;SDS011;21114;44.840;0.214;2022-11-20T17:01:41;10.38;;;5.90;;
34902;SDS011;21114;44.840;0.214;2022-11-20T17:04:08;11.80;;;5.35;;
34902;SDS011;21114;44.840;0.214;2022-11-20T17:06:35;11.88;;;5.93;;
34902;SDS011;21114;44.840;0.214;2022-11-20T17:09:49;15.90;;;5.25;;
34902;SDS011;21114;44.840;0.214;2022-11-20T17:12:15;13.27;;;5.93;;
34902;SDS011;21114;44.840;0.214;2022-11-20T17:14:41;17.13;;;6.93;;
34902;SDS011;21114;44.840;0.214;2022-11-20T17:17:07;13.32;;;6.78;;
34902;SDS011;21114;44.840;0.214;2022-11-20T17:19:34;13.00;;;6.15;;
34902;SDS011;21114;44.840;0.214;2022-11-20T17:22:00;14.98;;;5.43;;
34902;SDS011;21114;44.840;0.214;2022-11-20T17:24:26;15.35;;;7.20;;
34902;SDS011;21114;44.840;0.214;2022-11-20T17:26:52;22.33;;;8.60;;
34902;SDS011;21114;44.840;0.214;2022-11-20T17:29:18;18.58;;;8.88;;
34902;SDS011;21114;44.840;0.214;2022-11-20T17:31:48;19.35;;;6.75;;
34902;SDS011;21114;44.840;0.214;2022-11-20T17:35:03;25.00;;;7.25;;
34902;SDS011;21114;44.840;0.214;2022-11-20T17:37:30;13.30;;;7.10;;
34902;SDS011;21114;44.840;0.214;2022-11-20T17:39:56;13.65;;;7.25;;
34902;SDS011;21114;44.840;0.214;2022-11-20T17:42:22;14.68;;;8.10;;
34902;SDS011;21114;44.840;0.214;2022-11-20T17:44:51;20.17;;;7.68;;
34902;SDS011;21114;44.840;0.214;2022-11-20T17:47:17;19.10;;;7.53;;
34902;SDS011;21114;44.840;0.214;2022-11-20T17:49:43;13.20;;;6.85;;
34902;SDS011;21114;44.840;0.214;2022-11-20T17:52:09;23.38;;;12.10;;